Главная страница
METAR-TAF:

METAR-TAF

Аэропорты :

Гуйлинь, Китай

широта: 25-20N, долгота: 110-18E, высота над уровнем моря: 166 м

Текущие метеонаблюдения

Эта сводка был подготовлена 48 минут назад, в 21:00 UTC
Штиль
Температура 17°C
Влажность 94%
Давление 1014 hPa
Видимость: 4000 м
Отдельные облака на высоте 2300 фута
Сплошная облачность на высоте 3600 фута
небольшой дождь, дымка

METAR: ZGKL 252100Z 00000MPS 4000 -RA BR SCT023 OVC036 17/16 Q1014 NOSIG

Время: 05:48 (21:48 UTC)

Прогноз

Эта сводка был подготовлена 6 часа и 44 минут назад, в 15:04 UTC
Прогноз действительный с 25-го 18 UTC до 26-го 18 UTC
Ветер 2 Узел переменных направлений
Видимость: 2500 м
Отдельные облака на высоте 3000 фута
Сплошная облачность на высоте 5000 фута
дымка
временами
С 25-го 18 UTC до 25-го 24 UTC
Видимость: 1200 м
небольшой дождь

TAF: ZGKL 251504Z 2518/2618 VRB01MPS 2500 BR SCT030 OVC050 TX23/2608Z TN16/2521Z TEMPO 2518/2524 1200 -RA

Метеонаблюдения и прогнозы для более 4000 аэропортов (сводки METAR и TAF).

Имеющиеся станции представлены на карте желтыми и красными точками.

Чтобы увидеть название станции, наведите на нее мышь.

Затем щелкните, чтобы увидеть метеонаблюдения и метеопрогнозы.

Управление картой: чтобы увеличить масштаб, щелкните зеленые кнопки с черным крестиком; чтобы уменьшить масштаб, щелкните зеленую кнопку с тире; для просмотра соседних карт щелкайте зеленые стрелки.


METAR-TAF: